Terminal Aerodrome Forecast
Issued by NWS

Home | Current Version | Previous Version | Text Only | Print | Product List | Glossary On
Versions: 1 2 3 4 5 6 7 8 9 10 11 12
000
FTUS43 KIND 241720
TAFHUF
TAF
KHUF 241720Z 2418/2518 13005KT P6SM SKC
      TEMPO 2511/2512 5SM BR=

USA.gov is the U.S. government's official web portal to all federal, state and local government web resources and services.